Time;durP1;ratioP1;P1;durP2;ratioP2;P2;SDS_P1;SDS_P2;PMS_P1;PMS_P2;Temp;Humidity;BMP_temperature;BMP_pressure;BME280_temperature;BME280_humidity;BME280_pressure;Samples;Min_cycle;Max_cycle;Signal;HPM_P1;HPM_P2
2021/01/23 00:00:23;;;;;;;1.60;1.50;;;5.60;99.90;;;;;;5047070;28;20424;-81
2021/01/23 00:02:49;;;;;;;1.93;1.80;;;5.50;99.90;;;;;;5048093;28;20425;-81
2021/01/23 00:05:15;;;;;;;2.13;1.97;;;5.50;99.90;;;;;;5051984;28;20377;-80
2021/01/23 00:07:41;;;;;;;2.03;1.93;;;5.50;99.90;;;;;;5094114;28;20191;-78
2021/01/23 00:10:07;;;;;;;2.83;1.77;;;5.50;99.90;;;;;;5097330;28;20387;-78
2021/01/23 00:12:33;;;;;;;2.30;1.60;;;5.40;99.90;;;;;;5058788;28;20213;-81
2021/01/23 00:15:01;;;;;;;1.67;1.53;;;5.40;99.90;;;;;;5064563;28;20368;-80
2021/01/23 00:17:27;;;;;;;10.00;2.23;;;5.40;99.90;;;;;;5020557;28;20846;-81
2021/01/23 00:19:53;;;;;;;1.90;1.80;;;5.30;99.90;;;;;;5021237;28;20473;-81
2021/01/23 00:22:19;;;;;;;3.93;2.17;;;5.40;99.90;;;;;;5020733;28;20193;-81
2021/01/23 00:24:44;;;;;;;2.20;2.00;;;5.40;99.90;;;;;;5020012;28;20223;-80
2021/01/23 00:27:10;;;;;;;2.40;2.00;;;5.40;99.90;;;;;;5021472;28;20292;-81
2021/01/23 00:29:36;;;;;;;2.23;2.13;;;5.40;99.90;;;;;;5040089;28;20252;-81
2021/01/23 00:32:02;;;;;;;2.33;2.13;;;5.30;99.90;;;;;;5040438;28;20208;-81
2021/01/23 00:34:27;;;;;;;2.10;2.00;;;5.30;99.90;;;;;;5028769;28;20192;-78
2021/01/23 00:36:53;;;;;;;2.40;1.87;;;5.30;99.90;;;;;;5053440;28;20199;-78
2021/01/23 00:39:19;;;;;;;1.97;1.77;;;5.30;99.90;;;;;;5038262;28;20168;-79
2021/01/23 00:41:45;;;;;;;1.80;1.70;;;5.30;99.90;;;;;;5053455;28;20168;-78
2021/01/23 00:44:11;;;;;;;1.60;1.50;;;5.30;99.90;;;;;;5044216;28;20185;-80
2021/01/23 00:46:36;;;;;;;2.60;2.20;;;5.30;99.90;;;;;;5022424;28;20168;-80
2021/01/23 00:49:02;;;;;;;1.80;1.70;;;5.30;99.90;;;;;;5072194;28;20222;-80
2021/01/23 00:51:28;;;;;;;4.00;2.63;;;5.30;99.90;;;;;;5081625;28;20608;-80
2021/01/23 00:53:54;;;;;;;1.87;1.67;;;5.20;99.90;;;;;;5062558;28;20160;-80
2021/01/23 00:56:19;;;;;;;2.00;1.90;;;5.20;99.90;;;;;;5053916;28;20577;-80
2021/01/23 00:58:45;;;;;;;1.80;1.70;;;5.20;99.90;;;;;;5043054;28;20183;-80
2021/01/23 01:01:11;;;;;;;2.23;1.63;;;5.10;99.90;;;;;;5061276;28;20542;-81
2021/01/23 01:03:37;;;;;;;1.97;1.87;;;5.10;99.90;;;;;;5043359;28;20160;-80
2021/01/23 01:06:03;;;;;;;1.67;1.57;;;5.10;99.90;;;;;;5061234;28;20175;-79
2021/01/23 01:08:29;;;;;;;1.70;1.60;;;5.10;99.90;;;;;;5043403;28;20288;-80
2021/01/23 01:10:55;;;;;;;1.80;1.50;;;5.00;99.90;;;;;;5061256;28;20430;-81
2021/01/23 01:13:22;;;;;;;1.67;1.57;;;5.10;99.90;;;;;;5042896;28;20395;-80
2021/01/23 01:15:49;;;;;;;1.60;1.50;;;5.10;99.90;;;;;;5040023;28;20385;-80
2021/01/23 01:18:15;;;;;;;3.27;1.70;;;5.10;99.90;;;;;;5080534;28;20406;-80
2021/01/23 01:20:41;;;;;;;2.27;2.07;;;5.10;99.90;;;;;;5080801;28;20377;-81
2021/01/23 01:23:06;;;;;;;7.63;2.20;;;5.10;99.90;;;;;;5080566;28;20172;-80
2021/01/23 01:25:32;;;;;;;1.57;1.47;;;5.20;99.90;;;;;;5062273;28;20254;-80
2021/01/23 01:27:58;;;;;;;1.57;1.47;;;5.10;99.90;;;;;;5063342;28;20187;-81
2021/01/23 01:30:24;;;;;;;2.23;2.03;;;5.10;99.90;;;;;;5063830;28;20294;-80
2021/01/23 01:32:50;;;;;;;2.10;1.90;;;5.10;99.90;;;;;;5080337;28;20236;-81
2021/01/23 01:35:16;;;;;;;2.27;1.60;;;5.10;99.90;;;;;;5045883;28;20166;-79
2021/01/23 01:37:44;;;;;;;1.47;1.33;;;5.10;99.90;;;;;;5010350;28;20414;-79
2021/01/23 01:40:11;;;;;;;2.57;2.10;;;5.10;99.90;;;;;;5042207;28;20381;-79
2021/01/23 01:42:37;;;;;;;1.90;1.80;;;5.10;99.90;;;;;;5042719;28;20842;-80
2021/01/23 01:45:04;;;;;;;1.90;1.57;;;5.10;99.90;;;;;;5026543;28;20373;-80
2021/01/23 01:47:32;;;;;;;2.10;1.90;;;5.10;99.90;;;;;;5059755;28;20961;-78
2021/01/23 01:49:59;;;;;;;5.90;1.93;;;5.10;99.90;;;;;;5041958;28;20403;-79
2021/01/23 01:52:24;;;;;;;1.70;1.60;;;5.20;99.90;;;;;;5042342;28;20444;-81
2021/01/23 01:54:51;;;;;;;2.53;2.33;;;5.10;99.90;;;;;;5060334;28;20378;-80
2021/01/23 01:57:21;;;;;;;2.80;1.97;;;5.10;99.90;;;;;;5076134;28;20229;-80
2021/01/23 01:59:48;;;;;;;3.63;2.40;;;5.10;99.90;;;;;;5080401;28;20380;-81
2021/01/23 02:02:40;;;;;;;3.50;2.70;;;5.10;99.90;;;;;;5079936;28;20422;-81
2021/01/23 02:05:16;;;;;;;3.00;1.90;;;5.10;99.90;;;;;;5047417;28;20383;-79
2021/01/23 02:07:53;;;;;;;2.20;2.03;;;5.10;99.90;;;;;;5062286;28;20499;-80
2021/01/23 02:10:39;;;;;;;2.90;2.33;;;5.00;99.90;;;;;;5062192;28;20377;-80
2021/01/23 02:13:18;;;;;;;2.33;2.17;;;4.90;99.90;;;;;;5062063;28;20439;-80
2021/01/23 02:15:54;;;;;;;2.17;1.97;;;4.90;99.90;;;;;;5063913;28;20409;-80
2021/01/23 02:18:24;;;;;;;2.23;2.03;;;4.90;99.90;;;;;;5063939;28;20397;-80
2021/01/23 02:21:19;;;;;;;2.93;2.43;;;4.90;99.90;;;;;;5083202;28;20740;-81
2021/01/23 02:23:48;;;;;;;2.70;2.50;;;4.80;99.90;;;;;;5082072;28;20441;-81
2021/01/23 02:26:42;;;;;;;2.80;2.50;;;4.80;99.90;;;;;;5076357;28;20410;-80
2021/01/23 02:29:15;;;;;;;1.60;1.47;;;4.70;99.90;;;;;;5044402;28;20850;-79
2021/01/23 02:31:45;;;;;;;2.80;1.57;;;4.70;99.90;;;;;;5060057;28;20375;-81
2021/01/23 02:34:13;;;;;;;2.80;1.80;;;4.70;99.90;;;;;;5042259;28;20414;-81
2021/01/23 02:36:40;;;;;;;1.70;1.60;;;4.60;99.90;;;;;;5061717;28;20366;-81
2021/01/23 02:39:07;;;;;;;2.00;1.80;;;4.50;99.90;;;;;;5062860;28;20362;-80
2021/01/23 02:41:34;;;;;;;1.73;1.30;;;4.50;99.90;;;;;;5029411;28;20361;-80
2021/01/23 02:44:00;;;;;;;1.67;1.37;;;4.40;99.90;;;;;;5062477;28;20412;-80
2021/01/23 02:46:25;;;;;;;1.53;1.43;;;4.30;99.90;;;;;;5062615;28;20834;-80
2021/01/23 02:48:52;;;;;;;1.67;1.57;;;4.10;99.90;;;;;;5063890;28;20511;-80
2021/01/23 02:51:27;;;;;;;1.80;1.70;;;3.90;99.90;;;;;;5044128;28;20175;-80
2021/01/23 02:54:01;;;;;;;1.43;1.33;;;3.70;99.90;;;;;;5067072;28;20460;-79
2021/01/23 02:56:29;;;;;;;1.40;1.30;;;3.50;99.90;;;;;;5069954;28;20376;-78
2021/01/23 02:59:00;;;;;;;1.30;1.20;;;3.50;99.90;;;;;;5071057;28;20405;-79
2021/01/23 03:01:27;;;;;;;1.20;1.10;;;3.30;99.90;;;;;;5071243;28;20448;-77
2021/01/23 03:03:54;;;;;;;1.57;1.47;;;3.30;99.90;;;;;;5056496;28;20411;-78
2021/01/23 03:06:22;;;;;;;1.33;1.23;;;3.20;99.90;;;;;;5056256;28;20381;-78
2021/01/23 03:08:47;;;;;;;2.40;1.57;;;3.10;99.90;;;;;;5074211;28;20442;-77
2021/01/23 03:11:13;;;;;;;1.77;1.20;;;3.00;99.90;;;;;;5074022;28;20399;-77
2021/01/23 03:13:39;;;;;;;1.07;1.00;;;3.00;99.90;;;;;;5074209;28;20195;-77
2021/01/23 03:16:05;;;;;;;1.30;1.20;;;2.90;99.90;;;;;;5057994;28;20239;-78
2021/01/23 03:18:31;;;;;;;1.73;1.63;;;2.90;99.90;;;;;;5077573;28;20164;-78
2021/01/23 03:20:57;;;;;;;1.50;1.40;;;2.90;99.90;;;;;;5077083;28;20405;-78
2021/01/23 03:23:22;;;;;;;1.20;1.10;;;2.90;99.90;;;;;;5059024;28;20223;-77
2021/01/23 03:25:50;;;;;;;1.20;1.07;;;3.00;99.90;;;;;;5058898;28;20221;-77
2021/01/23 03:28:15;;;;;;;1.30;1.20;;;2.90;99.90;;;;;;5095977;28;20227;-77
2021/01/23 03:30:41;;;;;;;1.20;1.07;;;2.90;99.90;;;;;;5096388;28;20402;-78
2021/01/23 03:33:07;;;;;;;1.53;1.43;;;2.90;99.90;;;;;;5074833;28;20195;-79
2021/01/23 03:35:33;;;;;;;1.63;1.53;;;2.90;99.90;;;;;;5048607;28;20377;-80
2021/01/23 03:37:59;;;;;;;1.07;1.00;;;2.90;99.90;;;;;;5064393;28;20203;-80
2021/01/23 03:40:25;;;;;;;1.20;1.10;;;2.80;99.90;;;;;;5028446;28;20172;-80
2021/01/23 03:42:50;;;;;;;1.33;1.23;;;2.80;99.90;;;;;;5062908;28;20648;-80
2021/01/23 03:45:16;;;;;;;1.00;1.00;;;2.80;99.90;;;;;;5063217;28;20172;-80
2021/01/23 03:47:42;;;;;;;1.20;1.10;;;2.70;99.90;;;;;;5067966;28;20428;-77
2021/01/23 03:50:09;;;;;;;1.30;1.20;;;2.70;99.90;;;;;;5058838;28;20215;-77
2021/01/23 03:52:36;;;;;;;1.20;1.00;;;2.70;99.90;;;;;;5076379;28;20184;-77
2021/01/23 03:55:04;;;;;;;2.07;1.13;;;2.80;99.90;;;;;;5070345;28;20414;-80
2021/01/23 03:57:29;;;;;;;1.23;1.13;;;2.80;99.90;;;;;;5044871;28;20482;-79
2021/01/23 03:59:56;;;;;;;1.13;1.07;;;2.80;99.90;;;;;;5045254;28;20424;-79
2021/01/23 04:02:22;;;;;;;1.20;1.10;;;2.80;99.90;;;;;;5062471;28;20164;-80
2021/01/23 04:04:48;;;;;;;1.00;1.00;;;2.80;99.90;;;;;;5044372;28;20409;-80
2021/01/23 04:07:14;;;;;;;1.10;1.00;;;2.80;99.90;;;;;;5055191;28;20282;-79
2021/01/23 04:09:40;;;;;;;1.23;1.13;;;2.70;99.90;;;;;;5064488;28;20160;-80
2021/01/23 04:12:06;;;;;;;1.23;1.13;;;2.80;99.90;;;;;;5082187;28;20622;-79
2021/01/23 04:14:32;;;;;;;0.90;0.90;;;2.80;99.90;;;;;;5082165;28;20168;-80
2021/01/23 04:16:58;;;;;;;1.97;1.87;;;2.80;99.90;;;;;;5081565;28;20493;-79
2021/01/23 04:19:23;;;;;;;1.13;1.03;;;2.80;99.90;;;;;;5081785;28;20171;-80
2021/01/23 04:21:49;;;;;;;1.23;1.13;;;2.80;99.90;;;;;;5082874;28;20167;-80
2021/01/23 04:24:15;;;;;;;1.10;1.07;;;2.80;99.90;;;;;;5064622;28;20159;-80
2021/01/23 04:26:41;;;;;;;1.20;1.10;;;2.80;99.90;;;;;;5081498;28;20387;-79
2021/01/23 04:29:07;;;;;;;1.53;1.00;;;2.80;99.90;;;;;;5064945;28;20159;-79
2021/01/23 04:31:35;;;;;;;1.40;1.30;;;2.80;99.90;;;;;;5083072;28;20746;-80
2021/01/23 04:34:01;;;;;;;1.20;1.10;;;2.90;99.90;;;;;;5064754;28;20433;-80
2021/01/23 04:36:27;;;;;;;1.50;1.20;;;2.80;99.90;;;;;;5079575;28;20385;-80
2021/01/23 04:38:53;;;;;;;1.20;1.10;;;2.80;99.90;;;;;;5062788;28;20168;-79
2021/01/23 04:41:19;;;;;;;1.20;1.10;;;2.80;99.90;;;;;;5044784;28;20861;-80
2021/01/23 04:43:46;;;;;;;0.90;0.90;;;2.90;99.90;;;;;;5062132;28;20164;-80
2021/01/23 04:46:12;;;;;;;1.40;1.30;;;2.90;99.90;;;;;;5057673;28;20403;-80
2021/01/23 04:48:38;;;;;;;1.30;1.20;;;2.80;99.90;;;;;;5043702;28;20429;-80
2021/01/23 04:51:04;;;;;;;0.93;0.93;;;2.90;99.90;;;;;;5045534;28;20473;-80
2021/01/23 04:53:30;;;;;;;1.17;1.10;;;2.90;99.90;;;;;;5062560;28;20423;-80
2021/01/23 04:55:57;;;;;;;1.50;1.30;;;2.90;99.90;;;;;;5061963;28;20423;-80
2021/01/23 04:58:23;;;;;;;1.20;1.10;;;2.90;99.90;;;;;;5061715;28;20195;-80
2021/01/23 05:00:48;;;;;;;1.70;1.30;;;2.90;99.90;;;;;;5026593;28;20458;-80
2021/01/23 05:03:14;;;;;;;1.20;1.10;;;2.90;99.90;;;;;;5062076;28;20178;-80
2021/01/23 05:05:40;;;;;;;1.20;1.10;;;2.90;99.90;;;;;;5061979;28;20204;-80
2021/01/23 05:08:10;;;;;;;0.90;0.90;;;2.90;99.90;;;;;;5060805;28;20215;-79
2021/01/23 05:10:36;;;;;;;1.50;1.40;;;2.90;99.90;;;;;;5061601;28;20591;-80
2021/01/23 05:13:12;;;;;;;1.03;1.00;;;2.90;99.90;;;;;;5026761;28;20422;-79
2021/01/23 05:15:41;;;;;;;1.20;1.10;;;3.00;99.90;;;;;;5043422;28;20422;-80
2021/01/23 05:18:08;;;;;;;1.20;1.10;;;2.90;99.90;;;;;;5050823;28;20479;-80
2021/01/23 05:20:45;;;;;;;1.03;1.03;;;3.00;99.90;;;;;;5064213;28;20383;-79
2021/01/23 05:23:18;;;;;;;5.10;1.30;;;2.90;99.90;;;;;;5081928;28;20372;-80
2021/01/23 05:25:48;;;;;;;3.43;1.50;;;2.90;99.90;;;;;;5081838;28;20439;-80
2021/01/23 05:28:39;;;;;;;1.50;1.40;;;2.90;99.90;;;;;;5065241;28;20437;-80
2021/01/23 05:31:15;;;;;;;1.13;1.03;;;2.90;99.90;;;;;;5062691;28;20879;-80
2021/01/23 05:33:40;;;;;;;1.30;1.20;;;2.90;99.90;;;;;;5063653;28;20507;-80
2021/01/23 05:36:10;;;;;;;1.57;1.47;;;2.90;99.90;;;;;;5062723;28;20410;-80
2021/01/23 05:38:37;;;;;;;2.03;1.10;;;3.00;99.90;;;;;;5064861;28;20616;-80
2021/01/23 05:41:15;;;;;;;1.60;1.33;;;3.00;99.90;;;;;;5082926;28;20390;-79
2021/01/23 05:43:47;;;;;;;1.30;1.20;;;2.90;99.90;;;;;;5064297;28;20397;-80
2021/01/23 05:46:16;;;;;;;1.70;1.40;;;3.00;99.90;;;;;;5064780;28;20426;-80
2021/01/23 05:48:45;;;;;;;1.40;1.30;;;2.90;99.90;;;;;;5063628;28;20865;-80
2021/01/23 05:51:12;;;;;;;1.50;1.40;;;3.00;99.90;;;;;;5063475;28;20558;-80
2021/01/23 05:53:38;;;;;;;1.27;1.17;;;3.10;99.90;;;;;;5081675;28;20512;-80
2021/01/23 05:56:05;;;;;;;1.43;1.10;;;3.10;99.90;;;;;;5082056;28;20398;-80
2021/01/23 05:58:33;;;;;;;1.50;1.40;;;3.00;99.90;;;;;;5062979;28;20406;-80
2021/01/23 06:01:01;;;;;;;2.53;1.40;;;3.10;99.90;;;;;;5060993;28;20926;-80
2021/01/23 06:03:33;;;;;;;1.87;1.77;;;3.10;99.90;;;;;;5060832;28;20496;-81
2021/01/23 06:05:59;;;;;;;1.37;1.27;;;3.10;99.90;;;;;;5061616;28;20404;-81
2021/01/23 06:08:43;;;;;;;1.60;1.50;;;3.10;99.90;;;;;;5077930;28;20424;-80
2021/01/23 06:11:42;;;;;;;1.30;1.20;;;3.10;99.90;;;;;;5064607;28;20152;-80
2021/01/23 06:14:42;;;;;;;2.07;1.90;;;3.10;99.90;;;;;;5067140;28;20888;-80
2021/01/23 06:17:08;;;;;;;1.13;1.03;;;3.00;99.90;;;;;;5075180;28;20440;-81
2021/01/23 06:19:40;;;;;;;1.47;1.37;;;3.00;99.90;;;;;;5027954;28;20822;-80
2021/01/23 06:22:05;;;;;;;1.30;1.20;;;3.00;99.90;;;;;;5067284;28;20160;-80
2021/01/23 06:24:52;;;;;;;1.67;1.57;;;3.00;99.90;;;;;;5073303;28;20437;-80
2021/01/23 06:27:18;;;;;;;1.47;1.30;;;3.00;99.90;;;;;;5049192;28;20478;-80
2021/01/23 06:29:45;;;;;;;1.40;1.30;;;3.00;99.90;;;;;;5062450;28;20403;-80
2021/01/23 06:32:30;;;;;;;1.37;1.27;;;3.00;99.90;;;;;;5061791;28;20247;-80
2021/01/23 06:34:59;;;;;;;1.30;1.20;;;3.00;99.90;;;;;;5042082;28;20411;-80
2021/01/23 06:37:29;;;;;;;1.60;1.33;;;3.00;99.90;;;;;;5067741;28;20735;-80
2021/01/23 06:40:16;;;;;;;1.30;0.97;;;3.00;99.90;;;;;;5062532;28;20452;-80
2021/01/23 06:42:47;;;;;;;1.53;1.43;;;3.00;99.90;;;;;;5065593;28;20394;-80
2021/01/23 06:45:16;;;;;;;1.50;1.40;;;3.00;99.90;;;;;;5080558;28;20374;-80
2021/01/23 06:47:45;;;;;;;1.53;1.43;;;3.00;99.90;;;;;;5069904;28;20424;-80
2021/01/23 06:50:11;;;;;;;1.50;1.40;;;3.00;99.90;;;;;;5059840;28;20384;-80
2021/01/23 06:52:53;;;;;;;1.70;1.60;;;3.10;99.90;;;;;;5059397;28;20378;-80
2021/01/23 06:55:43;;;;;;;1.97;1.87;;;3.10;99.90;;;;;;5060103;28;20871;-80
2021/01/23 06:58:26;;;;;;;4.93;4.30;;;3.10;99.90;;;;;;5044354;28;20404;-79
2021/01/23 07:00:57;;;;;;;1.57;1.47;;;3.10;99.90;;;;;;5070124;28;20492;-80
2021/01/23 07:03:26;;;;;;;2.73;2.53;;;3.00;99.90;;;;;;5071451;28;20391;-77
2021/01/23 07:05:57;;;;;;;2.00;1.90;;;3.10;99.90;;;;;;5073127;28;20369;-78
2021/01/23 07:08:26;;;;;;;1.50;1.40;;;3.10;99.90;;;;;;5071189;28;20416;-78
2021/01/23 07:11:08;;;;;;;1.50;1.40;;;3.10;99.90;;;;;;5075908;28;20402;-81
2021/01/23 07:13:35;;;;;;;1.67;1.43;;;3.10;99.90;;;;;;5081564;28;20759;-80
2021/01/23 07:16:00;;;;;;;1.83;1.73;;;3.10;99.90;;;;;;5081745;28;20364;-81
2021/01/23 07:18:27;;;;;;;1.80;1.70;;;3.10;99.90;;;;;;5066794;28;20871;-80
2021/01/23 07:20:54;;;;;;;1.73;1.63;;;3.10;99.90;;;;;;5079655;28;20387;-81
2021/01/23 07:23:20;;;;;;;2.53;1.80;;;3.10;99.90;;;;;;5045610;28;20372;-81
2021/01/23 07:25:47;;;;;;;2.90;1.60;;;3.10;99.90;;;;;;5080653;28;20414;-81
2021/01/23 07:28:17;;;;;;;1.93;1.57;;;3.10;99.90;;;;;;5062264;28;20420;-81
2021/01/23 07:30:43;;;;;;;2.93;2.10;;;3.10;99.90;;;;;;5080373;28;20465;-81
2021/01/23 07:33:11;;;;;;;1.90;1.80;;;3.20;99.90;;;;;;5061830;28;20442;-81
2021/01/23 07:35:38;;;;;;;1.50;1.40;;;3.20;99.90;;;;;;5062832;28;20154;-81
2021/01/23 07:38:05;;;;;;;2.23;2.07;;;3.30;99.90;;;;;;5080003;28;20380;-80
2021/01/23 07:40:36;;;;;;;2.00;1.90;;;3.30;99.90;;;;;;5080591;28;20514;-79
2021/01/23 07:43:05;;;;;;;1.90;1.70;;;3.40;99.90;;;;;;5062030;28;20388;-79
2021/01/23 07:45:32;;;;;;;2.70;2.50;;;3.40;99.90;;;;;;5061057;28;20376;-80
2021/01/23 07:48:01;;;;;;;3.30;3.00;;;3.30;99.90;;;;;;5079341;28;21029;-79
2021/01/23 07:50:41;;;;;;;2.13;1.93;;;3.40;99.90;;;;;;5057924;28;20415;-81
2021/01/23 07:53:20;;;;;;;3.67;2.60;;;3.40;99.90;;;;;;5056079;28;20396;-80
2021/01/23 07:55:48;;;;;;;3.73;3.27;;;3.40;99.90;;;;;;5040844;28;20368;-80
2021/01/23 07:58:14;;;;;;;5.43;3.90;;;3.40;99.90;;;;;;5039483;28;20392;-80
2021/01/23 08:00:41;;;;;;;5.50;3.47;;;3.50;99.90;;;;;;5074064;28;20457;-81
2021/01/23 08:03:08;;;;;;;7.37;4.30;;;3.60;99.90;;;;;;5043049;28;20389;-81
2021/01/23 08:05:49;;;;;;;3.30;3.00;;;3.60;99.90;;;;;;5043601;28;20433;-81
2021/01/23 08:08:35;;;;;;;12.07;3.50;;;3.70;99.90;;;;;;5043630;28;20459;-80
2021/01/23 08:11:06;;;;;;;7.50;3.43;;;3.70;99.90;;;;;;5025937;28;20383;-81
2021/01/23 08:13:33;;;;;;;8.90;5.47;;;3.70;99.90;;;;;;5042942;28;20367;-80
2021/01/23 08:16:11;;;;;;;4.80;3.90;;;3.80;99.90;;;;;;5042752;28;20365;-80
2021/01/23 08:18:38;;;;;;;4.80;4.40;;;3.70;99.90;;;;;;5027977;28;20373;-80
2021/01/23 08:21:15;;;;;;;4.50;4.10;;;3.70;99.90;;;;;;5039239;28;20915;-80
2021/01/23 08:23:41;;;;;;;3.70;2.20;;;3.70;99.90;;;;;;5041414;28;20896;-80
2021/01/23 08:26:07;;;;;;;3.80;2.33;;;3.70;99.90;;;;;;5041757;28;20482;-82
2021/01/23 08:28:41;;;;;;;3.10;2.80;;;3.80;99.90;;;;;;5074872;28;20975;-81
2021/01/23 08:31:25;;;;;;;8.70;2.47;;;3.90;99.90;;;;;;5068145;28;20553;-81
2021/01/23 08:33:55;;;;;;;3.90;2.80;;;3.90;99.90;;;;;;5042319;28;20400;-80
2021/01/23 08:36:25;;;;;;;3.40;3.10;;;3.90;99.90;;;;;;5059127;28;20375;-81
2021/01/23 08:38:56;;;;;;;2.40;2.20;;;3.90;99.90;;;;;;5061125;28;20895;-81
2021/01/23 08:41:25;;;;;;;3.73;3.20;;;3.90;99.90;;;;;;5057276;28;20473;-82
2021/01/23 08:43:50;;;;;;;6.93;5.20;;;4.00;99.90;;;;;;5007999;28;20405;-82
2021/01/23 08:46:16;;;;;;;4.90;3.67;;;4.00;99.90;;;;;;5040908;28;20755;-82
2021/01/23 08:48:42;;;;;;;2.80;2.40;;;4.00;99.90;;;;;;5058464;28;20446;-83
2021/01/23 08:51:08;;;;;;;3.53;2.50;;;4.10;99.90;;;;;;5041029;28;20198;-82
2021/01/23 08:53:34;;;;;;;5.57;3.93;;;4.20;99.90;;;;;;5058971;28;20164;-82
2021/01/23 08:55:59;;;;;;;5.50;2.70;;;4.20;99.90;;;;;;5058661;28;20195;-82
2021/01/23 08:58:25;;;;;;;4.07;2.57;;;4.20;99.90;;;;;;5058196;28;20720;-82
2021/01/23 09:00:51;;;;;;;3.83;3.50;;;4.30;99.90;;;;;;5058486;28;20362;-82
2021/01/23 09:03:17;;;;;;;5.77;5.07;;;4.20;99.90;;;;;;5059183;28;20156;-82
2021/01/23 09:05:44;;;;;;;2.33;2.13;;;4.30;99.90;;;;;;5058776;28;20164;-82
2021/01/23 09:08:09;;;;;;;8.20;7.40;;;4.40;99.90;;;;;;5032817;28;20279;-82
2021/01/23 09:10:35;;;;;;;8.93;8.03;;;4.50;99.90;;;;;;5080019;28;20430;-82
2021/01/23 09:13:01;;;;;;;2.93;2.73;;;4.50;99.90;;;;;;5082824;28;20158;-82
2021/01/23 09:15:27;;;;;;;2.83;2.63;;;4.50;99.90;;;;;;5095846;28;20160;-82
2021/01/23 09:17:52;;;;;;;5.80;4.03;;;4.50;99.90;;;;;;5099094;28;20168;-82
2021/01/23 09:20:18;;;;;;;9.80;4.83;;;4.50;99.90;;;;;;5092992;28;20176;-82
2021/01/23 09:22:44;;;;;;;9.60;4.63;;;4.50;99.90;;;;;;5070653;28;20179;-82
2021/01/23 09:25:10;;;;;;;5.93;4.23;;;4.40;99.90;;;;;;5058213;28;20544;-82
2021/01/23 09:27:36;;;;;;;2.40;2.20;;;4.40;99.90;;;;;;5057805;28;20192;-80
2021/01/23 09:30:02;;;;;;;2.37;2.20;;;4.10;99.90;;;;;;5057817;28;20464;-81
2021/01/23 09:32:28;;;;;;;4.27;2.80;;;3.90;99.90;;;;;;5058103;28;20597;-81
2021/01/23 09:34:54;;;;;;;2.53;2.37;;;3.90;99.90;;;;;;5057508;28;20406;-81
2021/01/23 09:37:23;;;;;;;7.13;2.50;;;3.70;99.90;;;;;;5059280;28;20377;-81
2021/01/23 09:39:50;;;;;;;2.63;2.43;;;4.00;99.90;;;;;;5077590;28;20426;-82
2021/01/23 09:42:15;;;;;;;4.40;3.33;;;4.30;99.90;;;;;;5043431;28;20763;-82
2021/01/23 09:44:41;;;;;;;3.83;3.53;;;4.40;99.90;;;;;;5059343;28;20386;-81
2021/01/23 09:47:09;;;;;;;5.43;2.87;;;4.20;99.90;;;;;;5042889;28;20206;-82
2021/01/23 09:49:36;;;;;;;4.83;2.70;;;4.40;99.90;;;;;;5061715;28;20479;-80
2021/01/23 09:52:04;;;;;;;8.30;3.23;;;4.20;99.90;;;;;;5065748;28;20830;-80
2021/01/23 09:54:29;;;;;;;3.67;3.30;;;4.20;99.90;;;;;;5047594;28;20380;-80
2021/01/23 09:56:55;;;;;;;5.80;3.67;;;4.00;99.90;;;;;;5064799;28;20464;-79
2021/01/23 09:59:21;;;;;;;3.77;3.20;;;4.20;99.90;;;;;;5064289;28;20167;-80
2021/01/23 10:01:47;;;;;;;3.90;2.80;;;4.10;99.90;;;;;;5084438;28;20223;-81
2021/01/23 10:04:13;;;;;;;3.30;3.10;;;4.30;99.90;;;;;;5085271;28;20182;-80
2021/01/23 10:06:38;;;;;;;4.13;3.60;;;4.10;99.90;;;;;;5084460;28;20416;-80
2021/01/23 10:09:04;;;;;;;4.03;3.60;;;4.00;99.90;;;;;;5086918;28;20199;-80
2021/01/23 10:11:30;;;;;;;3.20;2.90;;;4.10;99.90;;;;;;5088909;28;20160;-80
2021/01/23 10:13:56;;;;;;;2.70;2.50;;;3.70;99.90;;;;;;5071046;28;20227;-80
2021/01/23 10:16:22;;;;;;;2.60;2.40;;;3.80;99.90;;;;;;5069136;28;20175;-80
2021/01/23 10:18:47;;;;;;;4.60;2.77;;;3.90;99.90;;;;;;5072807;28;20179;-79
2021/01/23 10:21:13;;;;;;;4.30;3.57;;;3.80;99.90;;;;;;5062900;28;20235;-78
2021/01/23 10:23:40;;;;;;;3.07;2.87;;;3.80;99.90;;;;;;5061930;28;20239;-79
2021/01/23 10:26:06;;;;;;;3.03;2.80;;;3.70;99.90;;;;;;5063916;28;20516;-80
2021/01/23 10:28:31;;;;;;;3.43;3.13;;;4.00;99.90;;;;;;5062037;28;20454;-80
2021/01/23 10:30:57;;;;;;;3.63;3.30;;;4.30;99.90;;;;;;5063273;28;20585;-80
2021/01/23 10:33:23;;;;;;;3.60;3.30;;;3.80;99.90;;;;;;5063669;28;20199;-80
2021/01/23 10:35:49;;;;;;;6.30;4.17;;;3.60;99.90;;;;;;5047497;28;20387;-80
2021/01/23 10:38:15;;;;;;;3.27;2.97;;;3.60;99.90;;;;;;5064841;28;20620;-79
2021/01/23 10:40:43;;;;;;;4.80;3.50;;;3.20;99.90;;;;;;5066259;28;20174;-79
2021/01/23 10:43:11;;;;;;;4.00;3.20;;;3.40;99.90;;;;;;5066578;28;20524;-80
2021/01/23 10:45:38;;;;;;;5.67;4.70;;;3.40;99.90;;;;;;5066576;28;20396;-80
2021/01/23 10:48:05;;;;;;;17.20;5.63;;;3.70;99.90;;;;;;5070740;28;20516;-80
2021/01/23 10:50:32;;;;;;;10.40;4.93;;;3.50;99.90;;;;;;5086348;28;20372;-81
2021/01/23 10:53:01;;;;;;;8.30;4.70;;;3.70;99.90;;;;;;5086667;28;20380;-80
2021/01/23 10:55:29;;;;;;;8.03;5.40;;;4.00;99.90;;;;;;5053297;28;20436;-79
2021/01/23 10:57:55;;;;;;;7.13;5.90;;;4.20;99.90;;;;;;5089868;28;20880;-79
2021/01/23 11:00:21;;;;;;;8.00;6.30;;;4.30;99.90;;;;;;5094585;28;20571;-79
2021/01/23 11:02:47;;;;;;;7.63;6.37;;;4.10;99.90;;;;;;5077576;28;20175;-79
2021/01/23 11:05:13;;;;;;;5.70;4.80;;;4.30;99.90;;;;;;5078049;28;20423;-79
2021/01/23 11:07:39;;;;;;;5.43;4.93;;;4.40;99.90;;;;;;5093258;28;20191;-79
2021/01/23 11:10:05;;;;;;;7.53;5.13;;;4.50;99.90;;;;;;5074379;28;20401;-80
2021/01/23 11:12:31;;;;;;;5.80;5.20;;;4.60;99.90;;;;;;5094163;28;20231;-80
2021/01/23 11:14:59;;;;;;;6.90;5.90;;;4.60;99.90;;;;;;5094417;28;20364;-79
2021/01/23 11:17:28;;;;;;;9.07;5.60;;;4.40;99.90;;;;;;5060234;28;20170;-77
2021/01/23 11:19:54;;;;;;;7.63;6.43;;;4.20;99.90;;;;;;5074368;28;20410;-79
2021/01/23 11:22:19;;;;;;;10.10;6.00;;;4.30;99.90;;;;;;5040965;28;20545;-78
2021/01/23 11:24:45;;;;;;;9.70;6.20;;;4.10;99.90;;;;;;5096164;28;20364;-80
2021/01/23 11:27:11;;;;;;;9.27;6.30;;;3.80;99.90;;;;;;5095070;28;20244;-79
2021/01/23 11:29:57;;;;;;;6.83;5.53;;;3.90;99.90;;;;;;5079722;28;20401;-78
2021/01/23 11:32:25;;;;;;;21.23;6.67;;;3.90;99.90;;;;;;5027083;28;20189;-81
2021/01/23 11:34:51;;;;;;;8.93;6.40;;;3.70;99.90;;;;;;5024664;28;20428;-80
2021/01/23 11:37:17;;;;;;;9.50;6.17;;;4.00;99.90;;;;;;4992268;28;20418;-81
2021/01/23 11:39:43;;;;;;;6.73;5.67;;;3.90;99.90;;;;;;5041355;28;20477;-80
2021/01/23 11:42:09;;;;;;;9.67;5.50;;;4.20;99.90;;;;;;5008253;28;20446;-81
2021/01/23 11:44:35;;;;;;;14.43;5.70;;;4.20;99.90;;;;;;5006952;28;20165;-80
2021/01/23 11:47:01;;;;;;;10.87;7.00;;;4.00;99.90;;;;;;5004547;28;20394;-81
2021/01/23 11:49:26;;;;;;;9.03;6.33;;;4.30;99.90;;;;;;5036378;28;20177;-80
2021/01/23 11:51:52;;;;;;;11.77;6.17;;;4.60;99.90;;;;;;5040533;28;20687;-80
2021/01/23 11:54:18;;;;;;;8.90;7.13;;;4.50;99.90;;;;;;5012822;28;20288;-81
2021/01/23 11:56:44;;;;;;;12.80;7.70;;;4.60;99.90;;;;;;5047285;28;20299;-81
2021/01/23 11:59:10;;;;;;;11.37;7.37;;;4.00;99.90;;;;;;5034241;28;20189;-81
2021/01/23 12:01:37;;;;;;;8.50;6.70;;;4.40;99.90;;;;;;5026065;28;20530;-81
2021/01/23 12:04:03;;;;;;;9.40;6.00;;;4.10;99.90;;;;;;5041848;28;20250;-79
2021/01/23 12:06:28;;;;;;;6.57;5.90;;;3.80;99.90;;;;;;5047868;28;20416;-80
2021/01/23 12:08:54;;;;;;;10.33;5.93;;;4.20;99.90;;;;;;5063690;28;20200;-81
2021/01/23 12:11:20;;;;;;;6.20;5.60;;;4.40;99.90;;;;;;5043931;28;20161;-80
2021/01/23 12:13:46;;;;;;;9.90;6.83;;;4.10;99.90;;;;;;5045399;28;20161;-79
2021/01/23 12:16:12;;;;;;;9.87;6.20;;;4.10;99.90;;;;;;5047486;28;20156;-80
2021/01/23 12:18:38;;;;;;;7.93;7.10;;;4.40;99.90;;;;;;5066419;28;20397;-80
2021/01/23 12:21:04;;;;;;;10.73;8.70;;;4.50;99.90;;;;;;5066718;28;20172;-80
2021/01/23 12:23:30;;;;;;;10.80;7.63;;;3.90;99.90;;;;;;5049487;28;20196;-81
2021/01/23 12:25:56;;;;;;;12.80;8.73;;;4.20;99.90;;;;;;5066704;28;20378;-80
2021/01/23 12:28:21;;;;;;;10.60;7.00;;;4.30;99.90;;;;;;5074582;28;20199;-80
2021/01/23 12:30:47;;;;;;;8.30;6.93;;;4.60;99.90;;;;;;5094175;28;20190;-78
2021/01/23 12:33:13;;;;;;;9.50;6.00;;;4.10;99.90;;;;;;5097273;28;20198;-80
2021/01/23 12:35:39;;;;;;;5.87;4.93;;;4.10;99.90;;;;;;5096586;28;20160;-79
2021/01/23 12:38:04;;;;;;;7.80;6.00;;;3.90;99.90;;;;;;5086507;28;20152;-81
2021/01/23 12:40:30;;;;;;;9.30;6.03;;;3.80;99.90;;;;;;5068221;28;20301;-80
2021/01/23 12:42:56;;;;;;;8.50;6.87;;;3.90;99.90;;;;;;5069529;28;20259;-81
2021/01/23 12:45:22;;;;;;;6.67;5.40;;;3.80;99.90;;;;;;5067801;28;20171;-80
2021/01/23 12:47:48;;;;;;;8.60;6.90;;;4.20;99.90;;;;;;5051683;28;20188;-80
2021/01/23 12:50:14;;;;;;;8.93;6.97;;;4.20;99.90;;;;;;5073022;28;20179;-80
2021/01/23 12:52:41;;;;;;;14.57;7.30;;;4.40;99.90;;;;;;5089038;28;20401;-81
2021/01/23 12:55:09;;;;;;;8.33;6.80;;;4.50;99.90;;;;;;5089253;28;20405;-81
2021/01/23 12:57:40;;;;;;;11.80;7.43;;;4.30;99.90;;;;;;5090402;28;20382;-81
2021/01/23 13:00:08;;;;;;;8.00;6.20;;;4.40;99.90;;;;;;5072878;28;20435;-79